Strait of Georgia - north of Nanaimo: Past 24 Hour Conditions

 

Race Rocks Lightstation

11:00 AM PDT 28 July 2014
This table is a summary of hourly weather conditions for the past 24 hours.
Date / Time
(PDT)
Wind(knots) Conditions Visibility(km) Pressure(kPa) Air tempC) Relative humidity(%) Dew pointC)
28 July 2014
11:00 WSW 11 N/A N/A 102.0 12 95 11
10:00 WSW 13 N/A N/A 102.0 12 95 11
9:00 WSW 17 N/A N/A 102.0 14 95 13
8:00 WSW 14 N/A N/A 102.0 12 99 11
7:00 WSW 10 N/A N/A 102.0 12 99 11
6:00 WSW 12 N/A N/A 102.0 11 99 11
5:00 WSW 16 N/A N/A 101.9 11 98 11
4:00 WSW 16 N/A N/A 101.9 12 97 12
3:00 W 15 N/A N/A 101.9 15 86 13
2:00 W 17 N/A N/A 101.9 18 68 12
1:00 W 24 N/A N/A 101.9 17 74 12
0:00 W 25 N/A N/A 101.9 17 76 13
27 July 2014
23:00 W 27 N/A N/A 101.9 17 76 13
22:00 W 27 N/A N/A 101.9 16 84 13
21:00 W 25 N/A N/A 101.9 15 89 13
20:00 WSW 22 N/A N/A 101.9 14 95 13
19:00 WSW 22 N/A N/A 101.9 13 94 12
18:00 WSW 22 N/A N/A 102.0 14 93 13
17:00 WSW 20 N/A N/A 102.0 13 95 12
16:00 WSW 17 N/A N/A 102.1 13 94 12
15:00 WSW 15 N/A N/A 102.1 13 92 12
14:00 W 13 N/A N/A 102.1 12 90 11
13:00 WSW 10 N/A N/A 102.2 16 87 14
12:00 WSW 9 N/A N/A 102.2 13 95 12
11:00 WSW 8 N/A N/A 102.3 12 97 12
 
Map of Pacific - South Coast marine weather areas Tsawwassen Ferry Terminal South Nomad - 46036 Sentry Shoal - 46131 South Brooks - 46132 Halibut Bank - 46146 South Moresby - 46147 South Hecate Strait - 46185 West Sea Otter - 46204 La Perouse Bank - 46206 East Dellwood - 46207 Discovery Island Esquimalt Harbour Kelp Reefs Malahat Race Rocks Lightstation Saturna Island Sheringham Point University of Victoria Victoria Gonzales Victoria Int'l Airport Ballenas Islands Campbell River Airport Comox Airport Entrance Island Fanny Island Nanaimo Airport Port Hardy Airport Sisters Islets Estevan Point Sartine Island Solander Island Tofino Airport Grief Point Powell River Airport Sechelt Cape St.James Bella Bella Airport Bella Coola Airport Cathedral Point Herbert Island Point Atkinson Sand Heads Lightstation Vancouver Harbour Vancouver Int'l Airport West Vancouver Port Alberni Howe Sound - Pam Rocks Squamish Airport